sensor_id;sensor_type;location;lat;lon;timestamp;P1;durP1;ratioP1;P2;durP2;ratioP2
11618;SDS011;5865;48.776;9.280;2023-04-26T03:03:39;14.63;;;8.43;;
11618;SDS011;5865;48.776;9.280;2023-04-26T03:06:06;15.30;;;8.67;;
11618;SDS011;5865;48.776;9.280;2023-04-26T03:08:33;13.63;;;8.30;;
11618;SDS011;5865;48.776;9.280;2023-04-26T03:11:01;15.47;;;9.20;;
11618;SDS011;5865;48.776;9.280;2023-04-26T03:13:29;14.43;;;9.03;;
11618;SDS011;5865;48.776;9.280;2023-04-26T03:15:57;12.27;;;8.27;;
11618;SDS011;5865;48.776;9.280;2023-04-26T03:18:26;11.70;;;8.03;;
11618;SDS011;5865;48.776;9.280;2023-04-26T03:20:55;11.30;;;7.67;;
11618;SDS011;5865;48.776;9.280;2023-04-26T03:23:23;11.17;;;7.97;;
11618;SDS011;5865;48.776;9.280;2023-04-26T03:25:51;12.33;;;8.07;;
11618;SDS011;5865;48.776;9.280;2023-04-26T03:28:18;13.00;;;8.63;;
11618;SDS011;5865;48.776;9.280;2023-04-26T03:30:45;11.27;;;7.53;;
11618;SDS011;5865;48.776;9.280;2023-04-26T03:33:14;12.20;;;8.20;;
11618;SDS011;5865;48.776;9.280;2023-04-26T03:35:42;15.57;;;8.60;;
11618;SDS011;5865;48.776;9.280;2023-04-26T03:38:11;13.77;;;8.20;;
11618;SDS011;5865;48.776;9.280;2023-04-26T03:40:39;12.70;;;7.80;;
11618;SDS011;5865;48.776;9.280;2023-04-26T03:43:06;14.40;;;7.90;;
11618;SDS011;5865;48.776;9.280;2023-04-26T03:45:33;12.30;;;7.73;;
11618;SDS011;5865;48.776;9.280;2023-04-26T03:48:00;10.60;;;7.00;;
11618;SDS011;5865;48.776;9.280;2023-04-26T03:50:28;13.07;;;7.30;;
11618;SDS011;5865;48.776;9.280;2023-04-26T03:52:55;9.33;;;6.97;;
11618;SDS011;5865;48.776;9.280;2023-04-26T03:55:24;9.53;;;6.60;;
11618;SDS011;5865;48.776;9.280;2023-04-26T03:57:51;11.10;;;6.40;;
11618;SDS011;5865;48.776;9.280;2023-04-26T04:00:24;9.57;;;7.03;;
11618;SDS011;5865;48.776;9.280;2023-04-26T04:02:52;11.03;;;7.10;;
11618;SDS011;5865;48.776;9.280;2023-04-26T04:05:23;15.90;;;7.43;;
11618;SDS011;5865;48.776;9.280;2023-04-26T04:07:50;9.67;;;6.70;;
11618;SDS011;5865;48.776;9.280;2023-04-26T04:10:19;10.97;;;6.83;;
11618;SDS011;5865;48.776;9.280;2023-04-26T04:12:49;12.73;;;7.10;;
11618;SDS011;5865;48.776;9.280;2023-04-26T04:15:17;11.60;;;7.97;;
11618;SDS011;5865;48.776;9.280;2023-04-26T04:17:46;10.33;;;6.73;;
11618;SDS011;5865;48.776;9.280;2023-04-26T04:20:13;12.87;;;7.10;;
11618;SDS011;5865;48.776;9.280;2023-04-26T04:22:41;11.50;;;6.53;;
11618;SDS011;5865;48.776;9.280;2023-04-26T04:25:09;11.93;;;6.60;;
11618;SDS011;5865;48.776;9.280;2023-04-26T04:27:37;12.23;;;6.93;;
11618;SDS011;5865;48.776;9.280;2023-04-26T04:30:09;12.00;;;6.70;;
11618;SDS011;5865;48.776;9.280;2023-04-26T04:34:28;12.53;;;7.37;;
11618;SDS011;5865;48.776;9.280;2023-04-26T04:39:14;15.13;;;8.17;;
11618;SDS011;5865;48.776;9.280;2023-04-26T05:22:40;16.10;;;9.40;;
11618;SDS011;5865;48.776;9.280;2023-04-26T05:25:53;17.40;;;9.83;;
11618;SDS011;5865;48.776;9.280;2023-04-26T05:32:13;15.57;;;9.73;;
11618;SDS011;5865;48.776;9.280;2023-04-26T05:35:42;14.37;;;9.43;;
11618;SDS011;5865;48.776;9.280;2023-04-26T10:05:12;5.18;;;2.92;;
11618;SDS011;5865;48.776;9.280;2023-04-26T10:09:07;5.63;;;3.10;;
11618;SDS011;5865;48.776;9.280;2023-04-26T10:18:48;5.18;;;2.80;;
11618;SDS011;5865;48.776;9.280;2023-04-26T13:16:39;4.20;;;2.70;;
11618;SDS011;5865;48.776;9.280;2023-04-26T13:19:08;5.50;;;2.72;;
11618;SDS011;5865;48.776;9.280;2023-04-26T13:21:35;6.38;;;2.75;;
11618;SDS011;5865;48.776;9.280;2023-04-26T13:24:02;4.07;;;2.40;;
11618;SDS011;5865;48.776;9.280;2023-04-26T13:26:30;4.35;;;2.22;;
11618;SDS011;5865;48.776;9.280;2023-04-26T13:28:57;4.50;;;2.60;;
11618;SDS011;5865;48.776;9.280;2023-04-26T13:31:24;3.47;;;2.50;;
11618;SDS011;5865;48.776;9.280;2023-04-26T13:33:52;5.53;;;2.58;;
11618;SDS011;5865;48.776;9.280;2023-04-26T13:36:20;4.25;;;2.55;;
11618;SDS011;5865;48.776;9.280;2023-04-26T13:38:47;10.20;;;6.00;;
11618;SDS011;5865;48.776;9.280;2023-04-26T13:41:14;3.53;;;2.33;;
11618;SDS011;5865;48.776;9.280;2023-04-26T13:43:41;4.65;;;2.78;;
11618;SDS011;5865;48.776;9.280;2023-04-26T13:46:07;2.75;;;2.20;;
11618;SDS011;5865;48.776;9.280;2023-04-26T13:48:35;7.40;;;2.40;;
11618;SDS011;5865;48.776;9.280;2023-04-26T13:51:03;4.38;;;2.70;;
11618;SDS011;5865;48.776;9.280;2023-04-26T13:53:31;5.15;;;2.35;;
11618;SDS011;5865;48.776;9.280;2023-04-26T13:55:58;2.55;;;2.17;;
11618;SDS011;5865;48.776;9.280;2023-04-26T13:58:26;4.95;;;2.60;;
11618;SDS011;5865;48.776;9.280;2023-04-26T14:00:53;6.13;;;2.80;;
11618;SDS011;5865;48.776;9.280;2023-04-26T14:03:20;4.57;;;2.45;;
11618;SDS011;5865;48.776;9.280;2023-04-26T14:05:47;5.13;;;2.90;;
11618;SDS011;5865;48.776;9.280;2023-04-26T14:08:15;4.13;;;2.75;;
11618;SDS011;5865;48.776;9.280;2023-04-26T14:10:42;5.07;;;3.28;;
11618;SDS011;5865;48.776;9.280;2023-04-26T14:13:09;5.15;;;3.10;;
11618;SDS011;5865;48.776;9.280;2023-04-26T14:15:36;10.73;;;4.05;;
11618;SDS011;5865;48.776;9.280;2023-04-26T14:18:03;4.55;;;2.75;;
11618;SDS011;5865;48.776;9.280;2023-04-26T14:20:30;4.50;;;2.85;;
11618;SDS011;5865;48.776;9.280;2023-04-26T14:22:57;4.32;;;3.10;;
11618;SDS011;5865;48.776;9.280;2023-04-26T14:25:26;4.50;;;3.00;;
11618;SDS011;5865;48.776;9.280;2023-04-26T14:27:53;5.95;;;3.13;;
11618;SDS011;5865;48.776;9.280;2023-04-26T14:30:20;4.82;;;2.97;;
11618;SDS011;5865;48.776;9.280;2023-04-26T14:32:48;6.57;;;3.20;;
11618;SDS011;5865;48.776;9.280;2023-04-26T14:35:15;4.57;;;3.03;;
11618;SDS011;5865;48.776;9.280;2023-04-26T14:37:42;6.32;;;3.05;;
11618;SDS011;5865;48.776;9.280;2023-04-26T14:40:10;5.50;;;2.75;;
11618;SDS011;5865;48.776;9.280;2023-04-26T14:42:39;5.70;;;2.92;;
11618;SDS011;5865;48.776;9.280;2023-04-26T14:45:09;6.68;;;2.88;;
11618;SDS011;5865;48.776;9.280;2023-04-26T14:47:36;8.20;;;3.42;;
11618;SDS011;5865;48.776;9.280;2023-04-26T14:50:04;6.03;;;3.20;;
11618;SDS011;5865;48.776;9.280;2023-04-26T14:52:33;5.03;;;3.00;;
11618;SDS011;5865;48.776;9.280;2023-04-26T14:55:00;5.47;;;3.40;;
11618;SDS011;5865;48.776;9.280;2023-04-26T14:57:27;4.45;;;2.90;;
11618;SDS011;5865;48.776;9.280;2023-04-26T14:59:57;4.28;;;2.80;;
11618;SDS011;5865;48.776;9.280;2023-04-26T15:02:31;4.97;;;2.70;;
11618;SDS011;5865;48.776;9.280;2023-04-26T15:04:58;5.80;;;2.88;;
11618;SDS011;5865;48.776;9.280;2023-04-26T15:07:26;3.90;;;2.60;;
11618;SDS011;5865;48.776;9.280;2023-04-26T15:09:53;6.78;;;3.00;;
11618;SDS011;5865;48.776;9.280;2023-04-26T15:12:20;4.70;;;3.08;;
11618;SDS011;5865;48.776;9.280;2023-04-26T15:14:47;6.00;;;3.00;;
11618;SDS011;5865;48.776;9.280;2023-04-26T15:17:15;4.72;;;2.88;;
11618;SDS011;5865;48.776;9.280;2023-04-26T15:19:42;9.48;;;3.10;;
11618;SDS011;5865;48.776;9.280;2023-04-26T15:22:09;5.25;;;2.83;;
11618;SDS011;5865;48.776;9.280;2023-04-26T15:24:37;5.88;;;3.33;;
11618;SDS011;5865;48.776;9.280;2023-04-26T15:27:04;6.57;;;3.30;;
11618;SDS011;5865;48.776;9.280;2023-04-26T15:29:31;5.88;;;3.33;;
11618;SDS011;5865;48.776;9.280;2023-04-26T15:31:58;4.18;;;2.92;;
11618;SDS011;5865;48.776;9.280;2023-04-26T15:34:27;6.20;;;2.83;;
11618;SDS011;5865;48.776;9.280;2023-04-26T15:36:54;4.25;;;2.70;;
11618;SDS011;5865;48.776;9.280;2023-04-26T15:39:25;4.68;;;3.17;;
11618;SDS011;5865;48.776;9.280;2023-04-26T15:41:52;4.57;;;3.00;;
11618;SDS011;5865;48.776;9.280;2023-04-26T15:44:19;6.13;;;3.00;;
11618;SDS011;5865;48.776;9.280;2023-04-26T15:46:46;5.68;;;3.00;;
11618;SDS011;5865;48.776;9.280;2023-04-26T15:49:13;3.85;;;2.70;;
11618;SDS011;5865;48.776;9.280;2023-04-26T15:51:41;4.60;;;3.10;;
11618;SDS011;5865;48.776;9.280;2023-04-26T15:54:08;6.22;;;3.00;;
11618;SDS011;5865;48.776;9.280;2023-04-26T15:56:38;6.00;;;3.10;;
11618;SDS011;5865;48.776;9.280;2023-04-26T15:59:05;3.78;;;2.67;;
11618;SDS011;5865;48.776;9.280;2023-04-26T16:01:32;4.95;;;2.80;;
11618;SDS011;5865;48.776;9.280;2023-04-26T16:03:59;6.03;;;2.85;;
11618;SDS011;5865;48.776;9.280;2023-04-26T16:06:26;3.90;;;2.65;;
11618;SDS011;5865;48.776;9.280;2023-04-26T16:08:55;3.67;;;2.63;;
11618;SDS011;5865;48.776;9.280;2023-04-26T16:11:22;3.58;;;2.67;;
11618;SDS011;5865;48.776;9.280;2023-04-26T16:13:50;4.53;;;2.45;;
11618;SDS011;5865;48.776;9.280;2023-04-26T16:16:17;4.97;;;3.17;;
11618;SDS011;5865;48.776;9.280;2023-04-26T16:18:44;4.30;;;2.50;;
11618;SDS011;5865;48.776;9.280;2023-04-26T16:21:11;4.78;;;2.90;;
11618;SDS011;5865;48.776;9.280;2023-04-26T16:23:39;3.63;;;2.53;;
11618;SDS011;5865;48.776;9.280;2023-04-26T16:26:08;7.72;;;3.20;;
11618;SDS011;5865;48.776;9.280;2023-04-26T16:28:36;4.78;;;2.85;;
11618;SDS011;5865;48.776;9.280;2023-04-26T16:31:03;4.07;;;2.80;;
11618;SDS011;5865;48.776;9.280;2023-04-26T16:33:30;3.97;;;2.50;;
11618;SDS011;5865;48.776;9.280;2023-04-26T16:35:58;4.07;;;2.77;;
11618;SDS011;5865;48.776;9.280;2023-04-26T16:38:25;4.47;;;2.50;;
11618;SDS011;5865;48.776;9.280;2023-04-26T16:40:52;6.13;;;2.90;;
11618;SDS011;5865;48.776;9.280;2023-04-26T16:43:23;5.30;;;2.80;;
11618;SDS011;5865;48.776;9.280;2023-04-26T16:45:57;6.33;;;2.83;;
11618;SDS011;5865;48.776;9.280;2023-04-26T16:48:25;6.83;;;2.87;;
11618;SDS011;5865;48.776;9.280;2023-04-26T16:50:52;5.90;;;2.50;;
11618;SDS011;5865;48.776;9.280;2023-04-26T16:53:19;5.67;;;2.60;;
11618;SDS011;5865;48.776;9.280;2023-04-26T16:55:47;6.30;;;2.80;;
11618;SDS011;5865;48.776;9.280;2023-04-26T16:58:14;3.77;;;2.33;;
11618;SDS011;5865;48.776;9.280;2023-04-26T17:00:43;3.83;;;2.87;;
11618;SDS011;5865;48.776;9.280;2023-04-26T17:03:10;4.30;;;2.57;;
11618;SDS011;5865;48.776;9.280;2023-04-26T17:05:38;6.03;;;2.40;;
11618;SDS011;5865;48.776;9.280;2023-04-26T17:08:06;4.33;;;2.40;;
11618;SDS011;5865;48.776;9.280;2023-04-26T17:10:34;5.60;;;2.40;;
11618;SDS011;5865;48.776;9.280;2023-04-26T17:13:02;5.10;;;2.43;;
11618;SDS011;5865;48.776;9.280;2023-04-26T17:15:30;6.27;;;2.73;;
11618;SDS011;5865;48.776;9.280;2023-04-26T17:18:00;4.70;;;2.60;;
11618;SDS011;5865;48.776;9.280;2023-04-26T17:20:27;3.63;;;2.67;;
11618;SDS011;5865;48.776;9.280;2023-04-26T17:22:54;6.07;;;2.43;;
11618;SDS011;5865;48.776;9.280;2023-04-26T17:25:21;5.33;;;2.30;;
11618;SDS011;5865;48.776;9.280;2023-04-26T17:27:48;4.97;;;2.40;;
11618;SDS011;5865;48.776;9.280;2023-04-26T17:30:16;3.53;;;2.20;;
11618;SDS011;5865;48.776;9.280;2023-04-26T17:32:44;5.27;;;2.50;;
11618;SDS011;5865;48.776;9.280;2023-04-26T17:35:12;3.00;;;2.10;;
11618;SDS011;5865;48.776;9.280;2023-04-26T17:37:39;3.03;;;2.20;;
11618;SDS011;5865;48.776;9.280;2023-04-26T17:40:07;3.83;;;2.10;;
11618;SDS011;5865;48.776;9.280;2023-04-26T17:42:34;2.90;;;2.20;;
11618;SDS011;5865;48.776;9.280;2023-04-26T17:45:02;3.90;;;2.10;;
11618;SDS011;5865;48.776;9.280;2023-04-26T17:47:29;3.60;;;2.20;;
11618;SDS011;5865;48.776;9.280;2023-04-26T17:49:57;3.37;;;1.80;;
11618;SDS011;5865;48.776;9.280;2023-04-26T17:52:25;3.93;;;2.10;;
11618;SDS011;5865;48.776;9.280;2023-04-26T17:54:52;4.83;;;2.47;;
11618;SDS011;5865;48.776;9.280;2023-04-26T17:57:20;5.63;;;2.20;;
11618;SDS011;5865;48.776;9.280;2023-04-26T17:59:48;4.37;;;2.07;;
11618;SDS011;5865;48.776;9.280;2023-04-26T18:02:16;3.30;;;2.00;;
11618;SDS011;5865;48.776;9.280;2023-04-26T18:04:43;4.40;;;2.10;;
11618;SDS011;5865;48.776;9.280;2023-04-26T18:07:10;3.43;;;1.97;;
11618;SDS011;5865;48.776;9.280;2023-04-26T18:09:39;4.70;;;2.23;;
11618;SDS011;5865;48.776;9.280;2023-04-26T18:12:06;4.07;;;2.30;;
11618;SDS011;5865;48.776;9.280;2023-04-26T18:14:33;5.03;;;3.00;;
11618;SDS011;5865;48.776;9.280;2023-04-26T18:17:03;8.23;;;4.20;;
11618;SDS011;5865;48.776;9.280;2023-04-26T18:19:30;4.00;;;2.37;;
11618;SDS011;5865;48.776;9.280;2023-04-26T18:21:57;2.87;;;2.23;;
11618;SDS011;5865;48.776;9.280;2023-04-26T18:24:24;3.57;;;2.17;;
11618;SDS011;5865;48.776;9.280;2023-04-26T18:26:53;5.47;;;1.90;;
11618;SDS011;5865;48.776;9.280;2023-04-26T18:29:20;4.33;;;2.10;;
11618;SDS011;5865;48.776;9.280;2023-04-26T18:31:47;4.17;;;2.03;;
11618;SDS011;5865;48.776;9.280;2023-04-26T18:34:18;3.67;;;2.20;;
11618;SDS011;5865;48.776;9.280;2023-04-26T18:36:45;5.33;;;2.50;;
11618;SDS011;5865;48.776;9.280;2023-04-26T18:39:13;3.27;;;2.00;;
11618;SDS011;5865;48.776;9.280;2023-04-26T18:41:40;4.20;;;1.90;;
11618;SDS011;5865;48.776;9.280;2023-04-26T18:44:09;3.90;;;2.23;;
11618;SDS011;5865;48.776;9.280;2023-04-26T18:46:38;4.07;;;2.50;;
11618;SDS011;5865;48.776;9.280;2023-04-26T18:49:05;4.27;;;2.07;;
11618;SDS011;5865;48.776;9.280;2023-04-26T18:51:35;2.83;;;1.80;;
11618;SDS011;5865;48.776;9.280;2023-04-26T18:54:02;2.43;;;2.00;;
11618;SDS011;5865;48.776;9.280;2023-04-26T18:56:30;3.90;;;2.10;;
11618;SDS011;5865;48.776;9.280;2023-04-26T18:59:01;2.97;;;2.20;;
11618;SDS011;5865;48.776;9.280;2023-04-26T19:01:30;3.40;;;2.00;;
11618;SDS011;5865;48.776;9.280;2023-04-26T19:03:58;5.33;;;2.10;;
11618;SDS011;5865;48.776;9.280;2023-04-26T19:06:39;3.87;;;2.17;;
11618;SDS011;5865;48.776;9.280;2023-04-26T19:09:08;3.40;;;2.10;;
11618;SDS011;5865;48.776;9.280;2023-04-26T19:11:37;3.47;;;2.27;;
11618;SDS011;5865;48.776;9.280;2023-04-26T19:14:04;5.20;;;2.10;;
11618;SDS011;5865;48.776;9.280;2023-04-26T19:16:34;3.60;;;2.20;;
11618;SDS011;5865;48.776;9.280;2023-04-26T19:19:02;3.03;;;1.93;;
11618;SDS011;5865;48.776;9.280;2023-04-26T19:21:29;2.93;;;2.10;;
11618;SDS011;5865;48.776;9.280;2023-04-26T19:23:59;4.63;;;2.27;;
11618;SDS011;5865;48.776;9.280;2023-04-26T19:26:28;2.70;;;2.13;;
11618;SDS011;5865;48.776;9.280;2023-04-26T19:28:57;4.13;;;2.20;;
11618;SDS011;5865;48.776;9.280;2023-04-26T19:31:26;3.50;;;2.17;;
11618;SDS011;5865;48.776;9.280;2023-04-26T19:33:56;3.03;;;2.00;;
11618;SDS011;5865;48.776;9.280;2023-04-26T19:36:24;4.17;;;2.23;;
11618;SDS011;5865;48.776;9.280;2023-04-26T19:38:51;7.80;;;2.40;;
11618;SDS011;5865;48.776;9.280;2023-04-26T19:41:18;4.80;;;2.10;;
11618;SDS011;5865;48.776;9.280;2023-04-26T19:43:46;4.27;;;1.90;;
11618;SDS011;5865;48.776;9.280;2023-04-26T19:46:18;2.93;;;1.90;;
11618;SDS011;5865;48.776;9.280;2023-04-26T19:48:47;3.30;;;1.90;;
11618;SDS011;5865;48.776;9.280;2023-04-26T19:51:16;3.40;;;1.83;;
11618;SDS011;5865;48.776;9.280;2023-04-26T19:53:43;2.80;;;1.90;;
11618;SDS011;5865;48.776;9.280;2023-04-26T19:56:11;2.53;;;1.70;;
11618;SDS011;5865;48.776;9.280;2023-04-26T19:58:38;3.90;;;2.00;;
11618;SDS011;5865;48.776;9.280;2023-04-26T20:01:06;3.17;;;1.93;;
11618;SDS011;5865;48.776;9.280;2023-04-26T20:03:47;3.93;;;2.00;;
11618;SDS011;5865;48.776;9.280;2023-04-26T20:06:22;3.60;;;1.80;;
11618;SDS011;5865;48.776;9.280;2023-04-26T20:08:50;4.37;;;2.20;;
11618;SDS011;5865;48.776;9.280;2023-04-26T20:11:17;4.23;;;2.00;;
11618;SDS011;5865;48.776;9.280;2023-04-26T20:13:46;3.43;;;2.20;;
11618;SDS011;5865;48.776;9.280;2023-04-26T20:16:13;4.77;;;2.30;;
11618;SDS011;5865;48.776;9.280;2023-04-26T20:18:48;3.20;;;2.47;;
11618;SDS011;5865;48.776;9.280;2023-04-26T20:21:24;4.90;;;2.20;;
11618;SDS011;5865;48.776;9.280;2023-04-26T20:23:51;4.23;;;2.53;;
11618;SDS011;5865;48.776;9.280;2023-04-26T20:26:19;4.57;;;2.63;;
11618;SDS011;5865;48.776;9.280;2023-04-26T20:29:00;3.70;;;2.83;;
11618;SDS011;5865;48.776;9.280;2023-04-26T20:31:27;5.37;;;3.00;;
11618;SDS011;5865;48.776;9.280;2023-04-26T20:33:54;2.87;;;2.57;;
11618;SDS011;5865;48.776;9.280;2023-04-26T20:36:34;4.57;;;2.60;;
11618;SDS011;5865;48.776;9.280;2023-04-26T20:39:05;3.53;;;2.50;;
11618;SDS011;5865;48.776;9.280;2023-04-26T20:41:34;5.27;;;2.53;;
11618;SDS011;5865;48.776;9.280;2023-04-26T20:44:05;4.27;;;2.63;;
11618;SDS011;5865;48.776;9.280;2023-04-26T20:46:33;4.70;;;2.60;;
11618;SDS011;5865;48.776;9.280;2023-04-26T20:49:01;3.13;;;2.33;;
11618;SDS011;5865;48.776;9.280;2023-04-26T20:51:34;4.30;;;2.20;;
11618;SDS011;5865;48.776;9.280;2023-04-26T20:54:02;3.23;;;2.10;;
11618;SDS011;5865;48.776;9.280;2023-04-26T20:56:30;3.17;;;2.10;;
11618;SDS011;5865;48.776;9.280;2023-04-26T20:58:58;4.33;;;2.23;;
11618;SDS011;5865;48.776;9.280;2023-04-26T21:01:27;2.50;;;1.80;;
11618;SDS011;5865;48.776;9.280;2023-04-26T21:03:54;3.93;;;2.20;;
11618;SDS011;5865;48.776;9.280;2023-04-26T21:06:22;3.87;;;2.10;;
11618;SDS011;5865;48.776;9.280;2023-04-26T21:08:52;4.43;;;2.30;;
11618;SDS011;5865;48.776;9.280;2023-04-26T21:11:20;3.97;;;2.10;;
11618;SDS011;5865;48.776;9.280;2023-04-26T21:13:52;3.63;;;2.17;;
11618;SDS011;5865;48.776;9.280;2023-04-26T21:16:22;3.63;;;2.20;;
11618;SDS011;5865;48.776;9.280;2023-04-26T21:18:53;2.20;;;2.00;;
11618;SDS011;5865;48.776;9.280;2023-04-26T21:21:21;3.27;;;2.23;;
11618;SDS011;5865;48.776;9.280;2023-04-26T21:23:48;2.83;;;1.90;;
11618;SDS011;5865;48.776;9.280;2023-04-26T21:26:32;2.83;;;2.03;;
11618;SDS011;5865;48.776;9.280;2023-04-26T21:29:00;4.13;;;2.20;;
11618;SDS011;5865;48.776;9.280;2023-04-26T21:31:28;3.27;;;2.10;;
11618;SDS011;5865;48.776;9.280;2023-04-26T21:33:56;2.63;;;1.90;;
11618;SDS011;5865;48.776;9.280;2023-04-26T21:36:23;3.13;;;2.03;;
11618;SDS011;5865;48.776;9.280;2023-04-26T21:38:52;2.17;;;1.77;;
11618;SDS011;5865;48.776;9.280;2023-04-26T21:41:21;4.27;;;2.07;;
11618;SDS011;5865;48.776;9.280;2023-04-26T21:43:51;3.07;;;2.00;;
11618;SDS011;5865;48.776;9.280;2023-04-26T21:46:22;6.27;;;2.10;;
11618;SDS011;5865;48.776;9.280;2023-04-26T21:48:50;2.73;;;1.90;;
11618;SDS011;5865;48.776;9.280;2023-04-26T21:51:17;4.20;;;2.23;;
11618;SDS011;5865;48.776;9.280;2023-04-26T21:53:48;3.93;;;2.10;;
11618;SDS011;5865;48.776;9.280;2023-04-26T21:56:15;3.30;;;1.87;;
11618;SDS011;5865;48.776;9.280;2023-04-26T21:58:43;3.63;;;2.00;;
11618;SDS011;5865;48.776;9.280;2023-04-26T22:01:13;4.70;;;1.93;;
11618;SDS011;5865;48.776;9.280;2023-04-26T22:03:43;2.20;;;1.67;;
11618;SDS011;5865;48.776;9.280;2023-04-26T22:06:10;2.60;;;1.67;;
11618;SDS011;5865;48.776;9.280;2023-04-26T22:08:38;2.63;;;1.70;;
11618;SDS011;5865;48.776;9.280;2023-04-26T22:11:06;2.70;;;1.80;;
11618;SDS011;5865;48.776;9.280;2023-04-26T22:13:34;3.43;;;1.60;;
11618;SDS011;5865;48.776;9.280;2023-04-26T22:16:01;2.87;;;1.60;;
11618;SDS011;5865;48.776;9.280;2023-04-26T22:18:30;2.97;;;1.77;;
11618;SDS011;5865;48.776;9.280;2023-04-26T22:20:57;3.40;;;1.97;;
11618;SDS011;5865;48.776;9.280;2023-04-26T22:23:24;2.60;;;1.70;;
11618;SDS011;5865;48.776;9.280;2023-04-26T22:25:51;2.83;;;1.80;;
11618;SDS011;5865;48.776;9.280;2023-04-26T22:28:18;3.30;;;2.17;;
11618;SDS011;5865;48.776;9.280;2023-04-26T22:30:45;4.63;;;2.10;;
11618;SDS011;5865;48.776;9.280;2023-04-26T22:33:12;3.30;;;1.80;;
11618;SDS011;5865;48.776;9.280;2023-04-26T22:35:42;3.30;;;1.90;;
11618;SDS011;5865;48.776;9.280;2023-04-26T22:38:11;2.63;;;2.10;;
11618;SDS011;5865;48.776;9.280;2023-04-26T22:40:38;4.23;;;1.90;;
11618;SDS011;5865;48.776;9.280;2023-04-26T22:43:07;2.47;;;1.87;;
11618;SDS011;5865;48.776;9.280;2023-04-26T22:45:39;2.47;;;1.70;;
11618;SDS011;5865;48.776;9.280;2023-04-26T22:48:06;1.97;;;1.73;;
11618;SDS011;5865;48.776;9.280;2023-04-26T22:50:33;5.33;;;2.53;;
11618;SDS011;5865;48.776;9.280;2023-04-26T22:53:04;2.70;;;2.30;;
11618;SDS011;5865;48.776;9.280;2023-04-26T22:55:31;2.93;;;2.10;;
11618;SDS011;5865;48.776;9.280;2023-04-26T22:57:59;2.87;;;2.07;;
11618;SDS011;5865;48.776;9.280;2023-04-26T23:00:26;2.93;;;2.00;;
11618;SDS011;5865;48.776;9.280;2023-04-26T23:02:53;4.20;;;2.20;;
11618;SDS011;5865;48.776;9.280;2023-04-26T23:05:20;2.93;;;2.00;;
11618;SDS011;5865;48.776;9.280;2023-04-26T23:07:47;3.50;;;2.10;;
11618;SDS011;5865;48.776;9.280;2023-04-26T23:20:13;3.07;;;2.07;;
11618;SDS011;5865;48.776;9.280;2023-04-26T23:22:54;4.00;;;2.10;;
11618;SDS011;5865;48.776;9.280;2023-04-26T23:25:35;3.83;;;2.20;;
11618;SDS011;5865;48.776;9.280;2023-04-26T23:28:16;3.53;;;2.00;;
11618;SDS011;5865;48.776;9.280;2023-04-26T23:30:57;2.10;;;1.90;;
11618;SDS011;5865;48.776;9.280;2023-04-26T23:33:38;2.93;;;2.43;;
11618;SDS011;5865;48.776;9.280;2023-04-26T23:52:29;2.63;;;2.10;;
11618;SDS011;5865;48.776;9.280;2023-04-26T23:55:06;3.33;;;2.50;;
11618;SDS011;5865;48.776;9.280;2023-04-26T23:57:34;2.97;;;2.40;;
